Time;durP1;ratioP1;P1;durP2;ratioP2;P2;SDS_P1;SDS_P2;PMS_P1;PMS_P2;Temp;Humidity;BMP_temperature;BMP_pressure;BME280_temperature;BME280_humidity;BME280_pressure;Samples;Min_cycle;Max_cycle;Signal;HPM_P1;HPM_P2
2022/09/29 00:02:04;;;;;;;9.40;6.10;;;;;;;4.67;81.59;98706.91;30853620;28;97580;-67
2022/09/29 00:17:04;;;;;;;12.02;6.07;;;;;;;4.43;82.15;98731.53;30854110;28;98759;-67
2022/09/29 00:32:05;;;;;;;10.27;6.28;;;;;;;4.29;81.87;98735.69;30852172;28;96899;-66
2022/09/29 00:47:05;;;;;;;12.10;6.00;;;;;;;4.06;82.12;98717.88;30862180;28;97491;-69
2022/09/29 01:02:05;;;;;;;9.77;6.53;;;;;;;3.99;82.25;98723.97;30869254;28;98210;-66
2022/09/29 01:17:06;;;;;;;10.55;6.22;;;;;;;4.06;83.05;98736.31;30867889;28;97089;-71
2022/09/29 01:32:35;;;;;;;8.13;5.90;;;;;;;3.94;82.90;98748.19;30865720;28;102427;-71
2022/09/29 01:47:43;;;;;;;11.43;7.55;;;;;;;3.82;82.79;98749.47;30865049;28;97403;-71
2022/09/29 02:03:07;;;;;;;11.35;6.43;;;;;;;3.58;82.81;98752.88;30862256;28;96532;-65
2022/09/29 02:18:17;;;;;;;10.07;6.28;;;;;;;3.62;83.66;98770.81;30862051;28;96653;-67
2022/09/29 02:33:23;;;;;;;10.98;6.30;;;;;;;3.60;83.52;98770.16;30861081;28;97226;-65
2022/09/29 02:48:55;;;;;;;11.93;5.90;;;;;;;3.54;83.43;98768.16;30858055;28;97135;-71
2022/09/29 03:03:55;;;;;;;11.68;6.88;;;;;;;3.51;83.73;98757.94;30857365;28;97457;-67
2022/09/29 03:18:56;;;;;;;12.15;6.78;;;;;;;3.52;83.23;98778.84;30853055;28;106415;-71
2022/09/29 03:33:57;;;;;;;14.32;6.68;;;;;;;3.58;83.58;98777.38;30853402;28;97331;-66
2022/09/29 03:48:57;;;;;;;8.95;6.07;;;;;;;3.55;83.74;98785.59;30853358;28;111064;-70
2022/09/29 04:03:57;;;;;;;13.20;7.28;;;;;;;3.50;83.26;98798.41;30851976;28;97554;-66
2022/09/29 04:18:58;;;;;;;11.15;7.18;;;;;;;3.43;83.68;98805.31;30857093;28;103493;-65
2022/09/29 04:33:58;;;;;;;12.30;7.55;;;;;;;3.35;83.89;98822.72;30868830;28;96600;-67
2022/09/29 04:48:58;;;;;;;15.68;7.35;;;;;;;3.25;83.68;98827.28;30866984;28;97138;-65
2022/09/29 05:03:59;;;;;;;15.23;9.77;;;;;;;3.31;83.84;98831.94;30866490;28;105321;-63
2022/09/29 05:18:59;;;;;;;19.38;10.95;;;;;;;3.51;84.11;98826.41;30864452;28;96648;-61
2022/09/29 05:34:00;;;;;;;23.05;16.90;;;;;;;3.75;84.41;98833.59;30862424;28;96840;-61
2022/09/29 05:49:00;;;;;;;24.10;15.02;;;;;;;4.10;83.81;98858.06;30861641;28;96612;-62
2022/09/29 06:04:01;;;;;;;16.63;10.23;;;;;;;4.28;83.56;98865.84;30861819;28;96995;-64
2022/09/29 06:19:02;;;;;;;22.02;12.18;;;;;;;5.07;84.18;98875.91;30858742;28;97044;-67
2022/09/29 06:34:04;;;;;;;18.88;11.18;;;;;;;6.44;84.11;98889.78;30857069;28;97897;-61
2022/09/29 06:49:04;;;;;;;12.33;7.83;;;;;;;7.68;82.80;98896.63;30855648;28;96626;-62
2022/09/29 07:04:04;;;;;;;12.85;6.72;;;;;;;9.45;82.15;98903.31;30855056;28;96578;-63
2022/09/29 07:19:05;;;;;;;6.15;4.30;;;;;;;10.78;80.69;98917.38;30853512;28;97439;-70
2022/09/29 07:34:05;;;;;;;6.63;3.95;;;;;;;11.84;77.17;98921.03;30850559;28;97370;-63
2022/09/29 07:49:05;;;;;;;7.75;3.80;;;;;;;12.88;76.49;98923.63;30853477;28;103512;-67
2022/09/29 08:04:06;;;;;;;4.53;3.20;;;;;;;14.07;73.64;98925.44;30870944;28;107251;-67
2022/09/29 08:19:06;;;;;;;4.50;3.00;;;;;;;15.61;69.66;98935.78;30871227;28;97172;-63
2022/09/29 08:34:06;;;;;;;6.50;2.97;;;;;;;18.00;64.68;98946.03;30869174;28;114267;-62
2022/09/29 08:49:17;;;;;;;3.67;2.22;;;;;;;27.68;47.72;98948.09;30868870;28;101210;-64
2022/09/29 09:05:07;;;;;;;2.40;1.73;;;;;;;38.11;28.99;98961.50;30865913;28;96713;-63
2022/09/29 09:20:25;;;;;;;2.27;1.70;;;;;;;27.13;28.26;98960.16;30837794;28;97633;-63
2022/09/29 09:35:44;;;;;;;6.97;2.57;;;;;;;26.24;29.84;98956.88;30864985;28;97608;-67
2022/09/29 09:50:47;;;;;;;4.27;1.73;;;;;;;27.46;27.06;98992.72;30862499;28;97348;-66
2022/09/29 10:05:49;;;;;;;5.67;2.30;;;;;;;27.43;25.74;98976.13;30860782;28;97569;-65
2022/09/29 10:20:49;;;;;;;2.73;1.60;;;;;;;22.21;31.01;98984.41;30858749;28;96886;-70
2022/09/29 10:36:04;;;;;;;4.03;1.67;;;;;;;19.90;34.01;98991.09;30857330;28;97333;-71
2022/09/29 10:51:22;;;;;;;4.17;1.53;;;;;;;20.57;33.61;98993.28;31208986;28;96533;-71
2022/09/29 11:06:34;;;;;;;2.00;1.40;;;;;;;20.67;34.05;98996.03;31204099;28;97400;-68
2022/09/29 11:21:41;;;;;;;10.30;2.17;;;;;;;31.86;24.16;98999.63;31203075;28;96667;-69
2022/09/29 11:37:01;;;;;;;5.50;1.60;;;;;;;40.75;15.74;99013.84;31201596;28;96976;-63
2022/09/29 11:52:26;;;;;;;2.93;1.30;;;;;;;35.53;18.16;98999.38;31172720;28;97435;-63
2022/09/29 12:07:59;;;;;;;4.77;1.27;;;;;;;25.59;26.05;98998.72;31111898;28;97387;-65
2022/09/29 12:23:04;;;;;;;5.43;1.80;;;;;;;22.15;29.88;98986.28;31107965;28;97481;-63
2022/09/29 12:38:12;;;;;;;3.00;1.33;;;;;;;23.04;28.85;98994.84;31108893;28;96791;-66
2022/09/29 12:53:13;;;;;;;6.03;1.43;;;;;;;22.90;29.22;98992.78;31109371;28;97540;-64
2022/09/29 13:08:22;;;;;;;2.80;1.63;;;;;;;21.89;30.15;99004.53;31106935;28;97480;-65
2022/09/29 13:23:37;;;;;;;3.80;1.77;;;;;;;20.69;32.57;99006.63;31104360;28;97125;-68
2022/09/29 13:38:38;;;;;;;3.07;1.60;;;;;;;19.77;33.33;99018.53;31104286;28;98624;-64
2022/09/29 13:53:38;;;;;;;6.00;1.33;;;;;;;18.53;35.41;99013.81;31103242;28;96683;-71
2022/09/29 14:08:53;;;;;;;4.15;1.50;;;;;;;23.23;31.01;99011.31;31101176;28;110855;-69
2022/09/29 14:23:55;;;;;;;1.20;0.87;;;;;;;21.08;31.37;99025.94;31100566;28;96764;-71
2022/09/29 14:38:56;;;;;;;2.83;1.23;;;;;;;18.70;34.71;99032.63;31098031;28;96715;-71
2022/09/29 14:54:13;;;;;;;4.43;1.70;;;;;;;17.75;37.44;99055.03;31098546;28;97009;-62
2022/09/29 15:09:18;;;;;;;3.03;1.70;;;;;;;17.68;37.71;99035.53;31095860;28;97378;-63
2022/09/29 15:24:33;;;;;;;4.47;1.90;;;;;;;16.78;38.89;99049.50;31094197;28;97328;-70
2022/09/29 15:39:35;;;;;;;8.37;2.00;;;;;;;15.82;40.21;99064.13;31113479;28;98406;-70
2022/09/29 15:54:43;;;;;;;3.97;1.50;;;;;;;14.83;42.64;99075.22;31114419;28;96739;-70
2022/09/29 16:09:44;;;;;;;9.20;2.67;;;;;;;13.65;45.45;99099.22;31112668;28;96609;-65
2022/09/29 16:25:27;;;;;;;7.82;2.70;;;;;;;12.60;48.05;99117.19;31110084;28;103722;-67
2022/09/29 16:40:29;;;;;;;6.50;2.83;;;;;;;11.80;51.34;99144.75;31106281;28;97329;-70
2022/09/29 16:55:31;;;;;;;9.13;4.30;;;;;;;11.03;54.07;99148.66;31109827;28;97269;-72
2022/09/29 17:10:31;;;;;;;9.17;4.00;;;;;;;10.49;56.48;99175.00;31108646;28;96782;-70
2022/09/29 17:25:33;;;;;;;11.05;4.25;;;;;;;10.07;58.51;99182.81;31106150;28;97217;-66
2022/09/29 17:40:55;;;;;;;13.07;5.23;;;;;;;9.76;59.91;99197.28;31103887;28;96748;-72
2022/09/29 17:55:56;;;;;;;16.13;5.10;;;;;;;9.64;61.49;99202.28;31102685;28;96636;-64
2022/09/29 18:10:59;;;;;;;11.07;5.40;;;;;;;9.61;62.81;99213.31;31101057;28;96632;-66
2022/09/29 18:26:01;;;;;;;14.77;7.17;;;;;;;9.68;63.33;99223.16;31100691;28;97298;-67
2022/09/29 18:41:01;;;;;;;15.47;8.40;;;;;;;9.42;64.32;99212.06;31100129;28;96752;-70
2022/09/29 18:56:03;;;;;;;28.92;10.70;;;;;;;9.18;64.99;99228.31;31099559;28;105283;-66
2022/09/29 19:11:04;;;;;;;23.50;12.43;;;;;;;9.04;65.15;99246.75;31117788;28;96601;-68
2022/09/29 19:26:14;;;;;;;17.90;10.00;;;;;;;8.79;66.03;99249.66;31118460;28;97350;-68
2022/09/29 19:41:18;;;;;;;16.53;9.70;;;;;;;8.44;66.44;99257.25;31118149;28;96795;-66
2022/09/29 19:56:18;;;;;;;;;;;;;;;8.24;67.37;99256.94;31116180;28;96958;-71
2022/09/29 20:11:18;;;;;;;14.95;9.25;;;;;;;8.06;68.11;99265.16;31114970;28;97717;-70
2022/09/29 20:26:19;;;;;;;15.60;9.48;;;;;;;7.81;68.16;99261.06;31113356;28;101852;-66
2022/09/29 20:41:19;;;;;;;21.07;9.90;;;;;;;7.39;69.21;99294.88;31112423;27;96617;-67
2022/09/29 20:56:21;;;;;;;17.77;10.50;;;;;;;7.16;69.89;99322.09;31110252;28;96705;-63
2022/09/29 21:11:21;;;;;;;19.80;13.20;;;;;;;7.21;71.12;99329.53;31109415;28;96650;-69
2022/09/29 21:26:23;;;;;;;30.40;14.55;;;;;;;7.13;71.55;99359.50;31107806;28;96668;-68
2022/09/29 21:41:26;;;;;;;22.87;13.90;;;;;;;7.14;72.51;99358.53;31105893;28;96680;-62
2022/09/29 21:56:30;;;;;;;24.53;15.27;;;;;;;7.01;72.10;99360.84;31105816;28;96908;-70
2022/09/29 22:11:34;;;;;;;29.00;15.20;;;;;;;6.84;73.19;99382.06;31104517;28;97374;-70
2022/09/29 22:26:36;;;;;;;24.33;15.67;;;;;;;6.76;73.29;99390.00;31102418;28;96749;-72
2022/09/29 22:41:38;;;;;;;27.80;15.93;;;;;;;6.64;73.71;99386.84;31100995;28;96775;-62
2022/09/29 22:56:39;;;;;;;27.53;16.17;;;;;;;6.42;74.36;99377.72;31100591;28;96693;-71
2022/09/29 23:11:40;;;;;;;24.23;14.55;;;;;;;6.24;75.02;99386.63;31099890;28;96618;-64
2022/09/29 23:26:41;;;;;;;27.35;16.80;;;;;;;6.19;75.16;99412.75;31098725;28;96733;-65
2022/09/29 23:41:42;;;;;;;25.05;16.50;;;;;;;6.11;75.31;99420.66;31096195;28;120177;-63
2022/09/29 23:56:44;;;;;;;27.73;15.93;;;;;;;6.00;76.01;99419.13;31114178;28;96645;-70
